Time;durP1;ratioP1;P1;durP2;ratioP2;P2;SDS_P1;SDS_P2;PMS_P1;PMS_P2;Temp;Humidity;BMP_temperature;BMP_pressure;BME280_temperature;BME280_humidity;BME280_pressure;Samples;Min_cycle;Max_cycle;Signal;HPM_P1;HPM_P2
2023/09/09 00:00:50;;;;;;;734.97;672.92;;;18.30;99.90;;;;;;5012079;28;20049;-89
2023/09/09 00:03:16;;;;;;;718.97;657.22;;;18.30;99.90;;;;;;5017292;28;20041;-90
2023/09/09 00:05:41;;;;;;;734.15;671.88;;;18.30;99.90;;;;;;5003700;28;20033;-90
2023/09/09 00:08:07;;;;;;;738.75;675.28;;;18.20;99.90;;;;;;4995007;28;20042;-90
2023/09/09 00:10:38;;;;;;;767.42;698.28;;;18.20;99.90;;;;;;4999572;28;20634;-90
2023/09/09 00:13:04;;;;;;;780.13;710.00;;;18.20;99.90;;;;;;4981982;28;20088;-90
2023/09/09 00:15:32;;;;;;;747.45;681.47;;;18.20;99.90;;;;;;5012680;28;20069;-90
2023/09/09 00:18:00;;;;;;;783.15;711.45;;;18.20;99.90;;;;;;5012402;28;20162;-89
2023/09/09 00:20:34;;;;;;;780.40;710.30;;;18.20;99.90;;;;;;5024148;28;20124;-90
2023/09/09 00:23:07;;;;;;;787.78;716.88;;;18.20;99.90;;;;;;5012480;28;20049;-90
2023/09/09 00:25:33;;;;;;;819.17;741.40;;;18.20;99.90;;;;;;5011237;28;20049;-90
2023/09/09 00:27:59;;;;;;;819.25;742.15;;;18.20;99.90;;;;;;4996761;28;20128;-89
2023/09/09 00:30:25;;;;;;;793.72;720.28;;;18.10;99.90;;;;;;5013166;28;20149;-89
2023/09/09 00:32:50;;;;;;;761.13;692.70;;;18.10;99.90;;;;;;4995491;28;20042;-90
2023/09/09 00:35:16;;;;;;;705.97;648.35;;;18.10;99.90;;;;;;5030113;28;20078;-90
2023/09/09 00:37:42;;;;;;;724.22;664.72;;;18.10;99.90;;;;;;5005023;28;20041;-89
2023/09/09 00:40:08;;;;;;;730.05;668.17;;;18.00;99.90;;;;;;5012241;28;20094;-90
2023/09/09 00:42:33;;;;;;;737.20;675.25;;;18.00;99.90;;;;;;5012895;28;20048;-90
2023/09/09 00:44:59;;;;;;;701.28;642.67;;;18.00;99.90;;;;;;5021887;28;20037;-90
2023/09/09 00:47:25;;;;;;;710.65;650.63;;;18.00;99.90;;;;;;4994205;28;20489;-90
2023/09/09 00:49:51;;;;;;;762.28;695.35;;;18.00;99.90;;;;;;5006737;28;20083;-90
2023/09/09 00:52:17;;;;;;;756.65;689.58;;;18.00;99.90;;;;;;5031635;28;20068;-91
2023/09/09 00:54:42;;;;;;;794.50;721.85;;;18.00;99.90;;;;;;5014920;28;20048;-91
2023/09/09 00:57:09;;;;;;;811.92;737.28;;;18.00;99.90;;;;;;5015105;28;20045;-91
2023/09/09 00:59:35;;;;;;;826.38;747.40;;;17.90;99.90;;;;;;5004398;28;20049;-91
2023/09/09 01:02:02;;;;;;;833.83;755.72;;;17.90;99.90;;;;;;5016373;28;20041;-91
2023/09/09 01:04:28;;;;;;;770.25;703.03;;;17.90;99.90;;;;;;5005014;28;20456;-91
2023/09/09 01:06:55;;;;;;;772.38;704.53;;;17.90;99.90;;;;;;5010803;28;20053;-90
2023/09/09 01:09:20;;;;;;;782.22;714.08;;;17.90;99.90;;;;;;5005782;28;20083;-90
2023/09/09 01:11:46;;;;;;;801.88;729.40;;;17.80;99.90;;;;;;5026953;28;20148;-90
2023/09/09 01:14:13;;;;;;;778.13;709.65;;;17.80;99.90;;;;;;4995431;28;20037;-90
2023/09/09 01:16:41;;;;;;;785.63;717.28;;;17.80;99.90;;;;;;5028147;28;20037;-91
2023/09/09 01:19:10;;;;;;;759.55;693.30;;;17.80;99.90;;;;;;5005145;28;20084;-90
2023/09/09 01:21:38;;;;;;;803.60;731.88;;;17.70;99.90;;;;;;5008008;28;20037;-90
2023/09/09 01:24:05;;;;;;;786.13;717.50;;;17.70;99.90;;;;;;5007752;28;20045;-91
2023/09/09 01:26:31;;;;;;;778.80;707.05;;;17.80;99.90;;;;;;5014835;28;20080;-91
2023/09/09 01:28:57;;;;;;;836.22;755.58;;;17.70;99.90;;;;;;5024156;28;20091;-91
2023/09/09 01:31:23;;;;;;;778.40;708.88;;;17.70;99.90;;;;;;5018661;28;20044;-90
2023/09/09 01:33:50;;;;;;;822.97;743.30;;;17.70;99.90;;;;;;5032522;28;20082;-90
2023/09/09 01:36:16;;;;;;;828.13;748.72;;;17.70;99.90;;;;;;5026525;28;20049;-91
2023/09/09 01:38:42;;;;;;;835.08;755.30;;;17.70;99.90;;;;;;4996623;28;20507;-91
2023/09/09 01:41:07;;;;;;;840.38;758.42;;;17.70;99.90;;;;;;5029278;28;20048;-91
2023/09/09 01:43:33;;;;;;;787.63;715.22;;;17.70;99.90;;;;;;5004485;28;20140;-91
2023/09/09 01:45:59;;;;;;;822.97;745.90;;;17.70;99.90;;;;;;4996236;28;20492;-90
2023/09/09 01:48:25;;;;;;;829.05;752.40;;;17.60;99.90;;;;;;4997230;28;20050;-91
2023/09/09 01:50:51;;;;;;;828.80;749.17;;;17.60;99.90;;;;;;5024184;28;20041;-91
2023/09/09 01:53:17;;;;;;;780.95;711.15;;;17.60;99.90;;;;;;5023517;28;20041;-91
2023/09/09 01:55:42;;;;;;;839.83;758.67;;;17.60;99.90;;;;;;5011711;28;20041;-90
2023/09/09 01:58:08;;;;;;;811.83;735.33;;;17.50;99.90;;;;;;5021351;28;20120;-90
2023/09/09 02:00:34;;;;;;;846.65;764.47;;;17.60;99.90;;;;;;5024487;28;20053;-90
2023/09/09 02:02:59;;;;;;;810.25;736.83;;;17.50;99.90;;;;;;5006645;28;20480;-91
2023/09/09 02:05:25;;;;;;;793.03;721.88;;;17.50;99.90;;;;;;5009882;28;20123;-90
2023/09/09 02:07:51;;;;;;;838.42;756.50;;;17.50;99.90;;;;;;5006073;28;20599;-90
2023/09/09 02:10:17;;;;;;;827.55;749.03;;;17.50;99.90;;;;;;5028134;28;20080;-91
2023/09/09 02:12:43;;;;;;;842.97;762.33;;;17.50;99.90;;;;;;5020621;28;20083;-91
2023/09/09 02:15:11;;;;;;;798.50;724.90;;;17.50;99.90;;;;;;5012473;28;20073;-90
2023/09/09 02:17:36;;;;;;;811.45;736.05;;;17.40;99.90;;;;;;4995675;28;20045;-90
2023/09/09 02:20:05;;;;;;;796.70;724.28;;;17.40;99.90;;;;;;5009641;28;20129;-90
2023/09/09 02:22:31;;;;;;;835.42;755.25;;;17.40;99.90;;;;;;4996885;28;20060;-91
2023/09/09 02:24:57;;;;;;;812.15;737.53;;;17.40;99.90;;;;;;4996194;28;20037;-90
2023/09/09 02:27:23;;;;;;;851.03;769.63;;;17.40;99.90;;;;;;4997057;28;20037;-91
2023/09/09 02:29:49;;;;;;;792.33;720.42;;;17.30;99.90;;;;;;4997524;28;20053;-91
2023/09/09 02:32:19;;;;;;;829.58;751.90;;;17.30;99.90;;;;;;5021956;28;20065;-91
2023/09/09 02:34:45;;;;;;;837.58;758.22;;;17.30;99.90;;;;;;5029069;28;20041;-91
2023/09/09 02:37:19;;;;;;;835.60;755.60;;;17.30;99.90;;;;;;5005892;28;20038;-91
2023/09/09 02:39:45;;;;;;;840.38;759.95;;;17.20;99.90;;;;;;5000201;28;20046;-90
2023/09/09 02:42:14;;;;;;;840.65;761.40;;;17.20;99.90;;;;;;5012600;28;20033;-91
2023/09/09 02:44:42;;;;;;;839.72;760.78;;;17.20;99.90;;;;;;5028579;28;20450;-91
2023/09/09 02:47:09;;;;;;;790.92;717.55;;;17.20;99.90;;;;;;5029075;28;20046;-91
2023/09/09 02:49:39;;;;;;;852.20;770.40;;;17.20;99.90;;;;;;5028976;28;20045;-90
2023/09/09 02:52:06;;;;;;;825.60;747.88;;;17.20;99.90;;;;;;5013049;28;20057;-90
2023/09/09 02:54:34;;;;;;;805.72;730.60;;;17.10;99.90;;;;;;4996220;28;20489;-90
2023/09/09 02:57:00;;;;;;;831.03;752.15;;;17.10;99.90;;;;;;5012608;28;20053;-90
2023/09/09 02:59:26;;;;;;;852.45;770.85;;;17.10;99.90;;;;;;4996636;28;20054;-90
2023/09/09 03:01:51;;;;;;;839.17;759.10;;;17.10;99.90;;;;;;5012398;28;20064;-91
2023/09/09 03:04:19;;;;;;;782.97;712.40;;;17.10;99.90;;;;;;4996167;28;20041;-90
2023/09/09 03:06:45;;;;;;;786.45;715.97;;;17.10;99.90;;;;;;5014952;28;20041;-90
2023/09/09 03:09:13;;;;;;;805.88;730.90;;;17.10;99.90;;;;;;5006229;28;20048;-90
2023/09/09 03:11:38;;;;;;;803.30;729.20;;;17.10;99.90;;;;;;4995653;28;20053;-90
2023/09/09 03:14:04;;;;;;;787.97;717.03;;;17.00;99.90;;;;;;4995783;28;20048;-90
2023/09/09 03:16:30;;;;;;;841.13;759.70;;;17.00;99.90;;;;;;4988343;28;20046;-91
2023/09/09 03:18:56;;;;;;;805.20;731.15;;;17.00;99.90;;;;;;5023104;28;20041;-90
2023/09/09 03:21:21;;;;;;;831.28;751.50;;;16.80;99.90;;;;;;5016036;28;20048;-90
2023/09/09 03:23:47;;;;;;;807.83;731.22;;;16.90;99.90;;;;;;5012063;28;20049;-90
2023/09/09 03:26:18;;;;;;;825.00;748.40;;;16.90;99.90;;;;;;5011749;28;20091;-90
2023/09/09 03:28:48;;;;;;;838.58;757.35;;;16.90;99.90;;;;;;5005558;28;20057;-90
2023/09/09 03:31:13;;;;;;;802.75;727.78;;;16.90;99.90;;;;;;5015054;28;20182;-90
2023/09/09 03:33:40;;;;;;;799.15;726.10;;;16.90;99.90;;;;;;5032013;28;20049;-91
2023/09/09 03:36:07;;;;;;;830.15;753.28;;;16.80;99.90;;;;;;5018261;28;20045;-90
2023/09/09 03:38:32;;;;;;;848.70;767.38;;;16.80;99.90;;;;;;5008729;28;20516;-90
2023/09/09 03:40:58;;;;;;;787.97;717.60;;;16.80;99.90;;;;;;5014940;28;20072;-90
2023/09/09 03:43:24;;;;;;;810.53;734.25;;;16.80;99.90;;;;;;5025760;28;20045;-91
2023/09/09 03:45:54;;;;;;;849.30;767.03;;;16.80;99.90;;;;;;5010871;28;20042;-89
2023/09/09 03:48:20;;;;;;;807.17;732.10;;;16.70;99.90;;;;;;4998925;28;20048;-90
2023/09/09 03:50:46;;;;;;;833.50;755.13;;;16.70;99.90;;;;;;5010903;28;20045;-90
2023/09/09 03:53:11;;;;;;;767.72;698.92;;;16.70;99.90;;;;;;5009421;28;20052;-90
2023/09/09 03:55:40;;;;;;;830.38;751.42;;;16.70;99.90;;;;;;4999734;28;20033;-89
2023/09/09 03:58:05;;;;;;;816.08;739.20;;;16.80;99.90;;;;;;5009270;28;20037;-90
2023/09/09 04:00:31;;;;;;;815.30;738.67;;;16.70;99.90;;;;;;5017282;28;20055;-90
2023/09/09 04:02:57;;;;;;;819.65;741.75;;;16.70;99.90;;;;;;5024173;28;20121;-90
2023/09/09 04:05:24;;;;;;;830.53;750.22;;;16.60;99.90;;;;;;5015801;28;20045;-89
2023/09/09 04:07:50;;;;;;;826.38;747.90;;;16.60;99.90;;;;;;4998288;28;20045;-89
2023/09/09 04:10:16;;;;;;;828.92;749.97;;;16.60;99.90;;;;;;4997692;28;20041;-89
2023/09/09 04:12:42;;;;;;;780.50;711.65;;;16.60;99.90;;;;;;5024822;28;20124;-90
2023/09/09 04:15:08;;;;;;;780.47;710.60;;;16.60;99.90;;;;;;4999636;28;20081;-90
2023/09/09 04:17:34;;;;;;;800.45;726.78;;;16.50;99.90;;;;;;4997844;28;20055;-89
2023/09/09 04:20:00;;;;;;;775.38;705.72;;;16.50;99.90;;;;;;4998467;28;20132;-88
2023/09/09 04:22:26;;;;;;;816.33;740.28;;;16.50;99.90;;;;;;5014172;28;20044;-89
2023/09/09 04:24:55;;;;;;;790.13;717.63;;;16.50;99.90;;;;;;5010866;28;20050;-89
2023/09/09 04:27:21;;;;;;;806.72;731.88;;;16.60;99.90;;;;;;4997934;28;20084;-88
2023/09/09 04:29:47;;;;;;;834.03;754.53;;;16.60;99.90;;;;;;4998038;28;20041;-89
2023/09/09 04:32:13;;;;;;;835.58;754.42;;;16.60;99.90;;;;;;4998105;28;20191;-90
2023/09/09 04:34:39;;;;;;;826.97;748.92;;;16.50;99.90;;;;;;5002092;28;20120;-89
2023/09/09 04:37:05;;;;;;;798.03;725.90;;;16.50;99.90;;;;;;5001130;28;20053;-89
2023/09/09 04:39:31;;;;;;;787.80;717.33;;;16.50;99.90;;;;;;4997418;28;20152;-90
2023/09/09 04:41:57;;;;;;;845.95;764.55;;;16.50;99.90;;;;;;5014848;28;20045;-91
2023/09/09 04:44:22;;;;;;;792.08;720.53;;;16.40;99.90;;;;;;5011854;28;20065;-90
2023/09/09 04:46:48;;;;;;;752.80;687.08;;;16.40;99.90;;;;;;5014358;28;20054;-90
2023/09/09 04:49:17;;;;;;;745.63;684.78;;;16.40;99.90;;;;;;4997733;28;20044;-90
2023/09/09 04:51:43;;;;;;;751.75;687.03;;;16.40;99.90;;;;;;5013011;28;20401;-90
2023/09/09 04:54:09;;;;;;;749.65;684.58;;;16.40;99.90;;;;;;4999991;28;20052;-90
2023/09/09 04:56:35;;;;;;;767.33;701.00;;;16.40;99.90;;;;;;5005719;28;20143;-90
2023/09/09 04:59:01;;;;;;;748.00;683.65;;;16.40;99.90;;;;;;5012892;28;20140;-90
2023/09/09 05:01:27;;;;;;;777.53;709.05;;;16.40;99.90;;;;;;5013650;28;20131;-90
2023/09/09 05:03:52;;;;;;;771.47;703.95;;;16.30;99.90;;;;;;5029674;28;20473;-90
2023/09/09 05:06:18;;;;;;;779.17;711.22;;;16.40;99.90;;;;;;5046800;28;20522;-89
2023/09/09 05:08:45;;;;;;;757.65;693.03;;;16.30;99.90;;;;;;5029618;28;20551;-90
2023/09/09 05:11:10;;;;;;;764.65;699.20;;;16.30;99.90;;;;;;5029879;28;20030;-90
2023/09/09 05:13:36;;;;;;;735.78;672.58;;;16.30;99.90;;;;;;5046514;28;20457;-89
2023/09/09 05:16:02;;;;;;;746.50;683.65;;;16.30;99.90;;;;;;5029431;28;20052;-89
2023/09/09 05:18:28;;;;;;;765.08;700.65;;;16.40;99.90;;;;;;5029659;28;20365;-88
2023/09/09 05:20:54;;;;;;;779.80;712.30;;;16.40;99.90;;;;;;5012800;28;20054;-88
2023/09/09 05:23:19;;;;;;;725.88;664.40;;;16.40;99.90;;;;;;5001640;28;20037;-89
2023/09/09 05:25:45;;;;;;;747.72;684.47;;;16.40;99.90;;;;;;5031625;28;20571;-91
2023/09/09 05:28:11;;;;;;;747.25;684.80;;;16.40;99.90;;;;;;5017381;28;20036;-89
2023/09/09 05:30:40;;;;;;;767.72;702.15;;;16.50;99.90;;;;;;5004722;28;20441;-88
2023/09/09 05:33:06;;;;;;;753.20;688.38;;;16.50;99.90;;;;;;5009512;28;20052;-88
2023/09/09 05:35:32;;;;;;;738.42;675.38;;;16.50;99.90;;;;;;5013670;28;20207;-93
2023/09/09 05:37:58;;;;;;;765.83;700.92;;;16.50;99.90;;;;;;5000796;28;20045;-94
2023/09/09 05:40:24;;;;;;;780.20;714.13;;;16.50;99.90;;;;;;5014908;28;20084;-92
2023/09/09 05:42:49;;;;;;;774.65;708.22;;;16.50;99.90;;;;;;4999440;28;20067;-92
2023/09/09 05:45:15;;;;;;;771.65;707.08;;;16.50;99.90;;;;;;5015210;28;20049;-92
2023/09/09 05:47:42;;;;;;;779.47;713.28;;;16.60;99.90;;;;;;5029281;28;20754;-93
2023/09/09 05:50:08;;;;;;;775.95;710.88;;;16.60;99.90;;;;;;5028477;28;20079;-92
2023/09/09 05:52:34;;;;;;;786.97;720.08;;;16.70;99.90;;;;;;5015994;28;20049;-92
2023/09/09 05:55:00;;;;;;;775.38;709.38;;;16.70;99.90;;;;;;4997952;28;20036;-92
2023/09/09 05:57:25;;;;;;;747.22;683.58;;;16.80;99.90;;;;;;4997576;28;20626;-92
2023/09/09 05:59:51;;;;;;;733.13;671.08;;;16.90;99.90;;;;;;5008821;28;20053;-93
2023/09/09 06:02:17;;;;;;;746.13;682.63;;;17.00;99.90;;;;;;4994022;28;20358;-92
2023/09/09 06:04:43;;;;;;;773.20;704.95;;;17.10;99.90;;;;;;5026346;28;20493;-94
2023/09/09 06:07:09;;;;;;;777.47;710.75;;;17.10;99.90;;;;;;5025505;28;20053;-93
2023/09/09 06:09:34;;;;;;;784.50;716.17;;;17.20;99.90;;;;;;5008381;28;20049;-93
2023/09/09 06:12:01;;;;;;;775.28;706.05;;;17.20;99.90;;;;;;5023634;28;20049;-93
2023/09/09 06:14:27;;;;;;;744.00;678.90;;;17.30;99.90;;;;;;5012502;28;20045;-92
2023/09/09 06:16:53;;;;;;;742.67;679.17;;;17.30;99.90;;;;;;4996145;28;20125;-93
2023/09/09 06:19:19;;;;;;;769.78;702.45;;;17.40;99.90;;;;;;4996987;28;20501;-93
2023/09/09 06:21:44;;;;;;;731.63;669.00;;;17.50;99.90;;;;;;5008763;28;20045;-93
2023/09/09 06:24:12;;;;;;;705.25;647.28;;;17.60;99.90;;;;;;4993945;28;20108;-92
2023/09/09 06:26:38;;;;;;;707.97;648.92;;;17.60;99.90;;;;;;5031224;28;20048;-92
2023/09/09 06:29:04;;;;;;;716.35;657.08;;;17.70;99.90;;;;;;5003357;28;20052;-91
2023/09/09 06:31:30;;;;;;;647.95;595.92;;;17.80;99.90;;;;;;5004000;28;20049;-93
2023/09/09 06:33:56;;;;;;;661.30;607.30;;;17.90;99.90;;;;;;5018489;28;20061;-93
2023/09/09 06:36:22;;;;;;;537.78;494.30;;;17.90;99.90;;;;;;5007611;28;20120;-93
2023/09/09 06:38:49;;;;;;;560.88;516.08;;;18.00;99.90;;;;;;4989389;28;20038;-94
2023/09/09 06:41:15;;;;;;;484.23;446.80;;;18.10;99.90;;;;;;5031301;28;20052;-92
2023/09/09 06:43:42;;;;;;;506.90;467.05;;;18.20;99.90;;;;;;5023934;28;20041;-94
2023/09/09 06:46:08;;;;;;;570.92;525.17;;;18.30;99.90;;;;;;4995191;28;20115;-93
2023/09/09 06:48:34;;;;;;;623.97;572.40;;;18.40;99.90;;;;;;5006003;28;20056;-92
2023/09/09 06:51:00;;;;;;;671.35;615.78;;;18.40;99.90;;;;;;5012786;28;20111;-93
2023/09/09 06:53:26;;;;;;;640.13;586.95;;;18.50;99.90;;;;;;4995100;28;20045;-93
2023/09/09 06:55:52;;;;;;;500.98;461.02;;;18.60;99.90;;;;;;5027795;28;20049;-93
2023/09/09 06:58:18;;;;;;;458.95;422.92;;;18.60;99.90;;;;;;5011064;28;20049;-91
2023/09/09 07:00:51;;;;;;;439.63;405.40;;;18.80;99.90;;;;;;5011596;28;20092;-92
2023/09/09 07:03:18;;;;;;;;;;;18.90;99.90;;;;;;5027049;28;20052;-95
2023/09/09 07:05:44;;;;;;;526.85;484.25;;;19.00;99.90;;;;;;5024346;28;20384;-96
2023/09/09 07:08:09;;;;;;;507.05;466.15;;;19.10;99.90;;;;;;5010894;28;20111;-95
2023/09/09 07:10:35;;;;;;;491.52;452.08;;;19.30;99.90;;;;;;5028795;28;20107;-92
2023/09/09 07:13:01;;;;;;;468.35;430.38;;;19.50;99.90;;;;;;5013906;28;20076;-90
2023/09/09 07:15:26;;;;;;;494.88;455.42;;;19.60;99.90;;;;;;5015794;28;20041;-91
2023/09/09 07:17:54;;;;;;;626.10;573.65;;;19.70;99.90;;;;;;5031360;28;20105;-90
2023/09/09 07:20:20;;;;;;;605.22;555.38;;;19.90;99.90;;;;;;5013604;28;20037;-91
2023/09/09 07:22:45;;;;;;;644.90;591.03;;;20.00;99.90;;;;;;5006816;28;20045;-90
2023/09/09 07:25:11;;;;;;;625.72;573.28;;;20.10;99.90;;;;;;5012686;28;20065;-90
2023/09/09 07:27:39;;;;;;;572.00;524.30;;;20.30;99.90;;;;;;5028860;28;20052;-90
2023/09/09 07:30:06;;;;;;;625.13;572.80;;;20.30;99.90;;;;;;5015868;28;20036;-91
2023/09/09 07:32:32;;;;;;;542.70;498.08;;;20.50;99.90;;;;;;5013362;28;20497;-91
2023/09/09 07:35:02;;;;;;;580.10;531.25;;;20.60;99.90;;;;;;5016129;28;20047;-90
2023/09/09 07:37:28;;;;;;;624.63;569.95;;;20.80;99.90;;;;;;5013399;28;20049;-90
2023/09/09 07:39:56;;;;;;;602.08;551.20;;;20.80;99.90;;;;;;5030752;28;20262;-90
2023/09/09 07:42:21;;;;;;;645.55;590.65;;;21.00;99.90;;;;;;5013240;28;20038;-90
2023/09/09 07:44:47;;;;;;;675.13;617.58;;;21.10;99.90;;;;;;5013913;28;20480;-91
2023/09/09 07:47:13;;;;;;;669.88;613.13;;;21.20;99.90;;;;;;5025866;28;20041;-91
2023/09/09 07:49:38;;;;;;;664.45;608.83;;;21.30;99.90;;;;;;5000809;28;20045;-91
2023/09/09 07:52:05;;;;;;;564.22;518.40;;;21.40;99.90;;;;;;5020877;28;20511;-90
2023/09/09 07:54:31;;;;;;;742.17;678.03;;;21.50;99.90;;;;;;5004829;28;20045;-90
2023/09/09 07:57:01;;;;;;;743.25;678.47;;;21.50;99.90;;;;;;5020329;28;20080;-90
2023/09/09 07:59:30;;;;;;;716.22;655.08;;;21.60;99.90;;;;;;5011739;28;20057;-90
2023/09/09 08:01:56;;;;;;;754.20;689.38;;;21.60;99.90;;;;;;4979235;28;20513;-90
2023/09/09 08:04:23;;;;;;;713.58;651.38;;;21.70;99.90;;;;;;5006476;28;20034;-90
2023/09/09 08:06:52;;;;;;;722.38;659.22;;;21.80;99.90;;;;;;4977167;28;20069;-90
2023/09/09 08:09:19;;;;;;;553.75;504.80;;;21.90;99.90;;;;;;4984887;28;20037;-90
2023/09/09 08:11:45;;;;;;;429.65;393.73;;;22.00;99.90;;;;;;4987415;28;20053;-89
2023/09/09 08:14:10;;;;;;;572.08;521.28;;;22.10;99.90;;;;;;4998191;28;20048;-90
2023/09/09 08:16:36;;;;;;;401.83;367.45;;;22.10;99.90;;;;;;4989336;28;20038;-90
2023/09/09 08:19:02;;;;;;;292.63;269.05;;;22.20;99.90;;;;;;4984600;28;20049;-90
2023/09/09 08:21:28;;;;;;;447.50;408.27;;;22.30;99.90;;;;;;4984729;28;20366;-90
2023/09/09 08:23:59;;;;;;;611.20;558.15;;;22.40;99.90;;;;;;4995697;28;20394;-90
2023/09/09 08:26:25;;;;;;;484.58;441.10;;;22.50;99.90;;;;;;4978452;28;20053;-90
2023/09/09 08:28:51;;;;;;;337.55;310.92;;;22.50;99.90;;;;;;4977928;28;20061;-90
2023/09/09 08:31:17;;;;;;;377.30;348.15;;;22.60;99.90;;;;;;4981408;28;20045;-91
2023/09/09 08:33:42;;;;;;;411.00;379.48;;;22.70;99.90;;;;;;4985084;28;20038;-90
2023/09/09 08:36:08;;;;;;;370.92;341.42;;;22.80;99.90;;;;;;4989390;28;20042;-90
2023/09/09 08:38:34;;;;;;;397.92;367.08;;;22.80;99.90;;;;;;4987366;28;20056;-90
2023/09/09 08:41:16;;;;;;;427.73;393.70;;;22.90;99.90;;;;;;4998487;28;20051;-91
2023/09/09 08:43:51;;;;;;;480.83;442.23;;;23.00;99.90;;;;;;4994893;28;20039;-91
2023/09/09 08:46:19;;;;;;;424.02;390.45;;;23.10;99.90;;;;;;4998330;28;20045;-91
2023/09/09 08:48:48;;;;;;;434.58;400.27;;;23.20;99.90;;;;;;5006997;28;20041;-91
2023/09/09 08:51:16;;;;;;;466.75;429.85;;;23.30;99.90;;;;;;4994618;28;20046;-91
2023/09/09 08:53:53;;;;;;;450.23;415.00;;;23.40;99.90;;;;;;5011300;28;20041;-91
2023/09/09 08:56:21;;;;;;;451.27;416.40;;;23.40;99.90;;;;;;5012508;28;20042;-91
2023/09/09 08:58:46;;;;;;;412.67;380.63;;;23.60;99.90;;;;;;5017597;28;20045;-91
2023/09/09 09:01:15;;;;;;;479.08;440.85;;;23.60;99.90;;;;;;5004990;28;20056;-91
2023/09/09 09:03:42;;;;;;;427.10;394.30;;;23.70;99.90;;;;;;5025130;28;20745;-91
2023/09/09 09:06:09;;;;;;;414.58;382.00;;;23.80;99.90;;;;;;4995580;28;20045;-91
2023/09/09 09:08:35;;;;;;;452.00;413.83;;;23.80;99.90;;;;;;5012351;28;20038;-91
2023/09/09 09:11:03;;;;;;;438.40;402.33;;;23.90;99.90;;;;;;5021954;28;20051;-91
2023/09/09 09:13:35;;;;;;;436.38;399.58;;;24.00;99.90;;;;;;4989114;28;20049;-91
2023/09/09 09:16:01;;;;;;;382.55;351.45;;;24.00;99.90;;;;;;5003970;28;20122;-91
2023/09/09 09:18:27;;;;;;;350.23;322.80;;;24.20;99.90;;;;;;5014831;28;20420;-90
2023/09/09 09:20:53;;;;;;;388.83;360.17;;;24.20;99.90;;;;;;5030698;28;20198;-90
2023/09/09 09:23:20;;;;;;;484.40;444.98;;;24.30;99.90;;;;;;5026544;28;20399;-91
2023/09/09 09:25:49;;;;;;;382.77;353.35;;;24.40;99.90;;;;;;4995316;28;20068;-90
2023/09/09 09:28:16;;;;;;;438.13;404.80;;;24.50;99.90;;;;;;5011412;28;20056;-90
2023/09/09 09:30:42;;;;;;;395.70;361.33;;;24.60;99.90;;;;;;5011380;28;20048;-91
2023/09/09 09:33:08;;;;;;;292.85;269.98;;;24.60;99.90;;;;;;4995069;28;20085;-91
2023/09/09 09:35:37;;;;;;;459.20;418.63;;;24.70;99.90;;;;;;4995523;28;20083;-90
2023/09/09 09:38:06;;;;;;;378.00;346.60;;;24.70;99.90;;;;;;4995746;28;20128;-91
2023/09/09 09:40:35;;;;;;;357.45;331.65;;;24.90;99.90;;;;;;4995287;28;20069;-91
2023/09/09 09:43:01;;;;;;;465.83;428.17;;;24.90;99.90;;;;;;5012708;28;20029;-90
2023/09/09 09:45:28;;;;;;;309.00;288.17;;;25.00;99.90;;;;;;5013173;28;20046;-91
2023/09/09 09:47:55;;;;;;;504.25;461.13;;;25.00;99.90;;;;;;5012516;28;20041;-91
2023/09/09 09:50:28;;;;;;;330.25;305.88;;;25.10;99.90;;;;;;5012867;28;20095;-92
2023/09/09 09:53:04;;;;;;;407.67;377.70;;;25.20;99.90;;;;;;4997108;28;20137;-91
2023/09/09 09:55:32;;;;;;;460.77;424.08;;;25.30;99.90;;;;;;4996884;28;20444;-91
2023/09/09 09:58:03;;;;;;;442.63;407.50;;;25.40;99.90;;;;;;4996979;28;20041;-91
2023/09/09 10:00:30;;;;;;;585.20;536.10;;;25.40;99.90;;;;;;5014138;28;20559;-92
2023/09/09 10:02:58;;;;;;;357.15;332.27;;;25.40;99.90;;;;;;4996388;28;20087;-91
2023/09/09 10:05:28;;;;;;;642.80;585.65;;;25.50;99.90;;;;;;4996694;28;20044;-91
2023/09/09 10:08:29;;;;;;;738.28;671.40;;;25.50;99.90;;;;;;4998139;28;20091;-91
2023/09/09 10:11:10;;;;;;;724.97;660.72;;;25.60;99.90;;;;;;5001751;28;20045;-92
2023/09/09 10:13:57;;;;;;;539.00;491.95;;;25.60;99.90;;;;;;5013430;28;20116;-91
2023/09/09 10:16:24;;;;;;;752.67;684.17;;;25.70;99.90;;;;;;5007214;28;20041;-91
2023/09/09 10:18:52;;;;;;;754.10;685.42;;;25.80;99.90;;;;;;5011954;28;20045;-91
2023/09/09 10:21:19;;;;;;;647.95;590.10;;;25.80;99.90;;;;;;5011790;28;20477;-91
2023/09/09 10:23:54;;;;;;;753.83;685.20;;;25.90;99.90;;;;;;5011537;28;20049;-91
2023/09/09 10:26:22;;;;;;;751.33;682.72;;;25.90;99.90;;;;;;4995506;28;20132;-91
2023/09/09 10:28:49;;;;;;;756.40;688.28;;;26.00;99.90;;;;;;5012178;28;20095;-92
2023/09/09 10:31:27;;;;;;;752.85;684.67;;;26.10;99.90;;;;;;5012818;28;20060;-91
2023/09/09 10:33:56;;;;;;;710.40;647.58;;;26.10;99.90;;;;;;4994671;28;20049;-91
2023/09/09 10:36:26;;;;;;;702.67;640.67;;;26.10;99.90;;;;;;5007885;28;20037;-91
2023/09/09 10:38:58;;;;;;;717.45;655.28;;;26.20;99.90;;;;;;4994986;28;20041;-91
2023/09/09 10:41:36;;;;;;;731.90;666.20;;;26.20;99.90;;;;;;4983559;28;20089;-91
2023/09/09 10:44:33;;;;;;;750.58;683.05;;;26.20;99.90;;;;;;5011312;28;20049;-92
2023/09/09 10:47:08;;;;;;;679.10;619.75;;;26.30;99.90;;;;;;4998056;28;20049;-92
2023/09/09 10:49:48;;;;;;;774.00;701.78;;;26.30;99.90;;;;;;5004249;28;20080;-92
2023/09/09 10:52:33;;;;;;;753.42;684.47;;;26.40;99.90;;;;;;4998247;28;20041;-92
2023/09/09 10:55:29;;;;;;;707.88;644.10;;;26.40;99.90;;;;;;5015464;28;20092;-92
2023/09/09 10:58:39;;;;;;;645.65;589.97;;;26.40;99.90;;;;;;5001147;28;20045;-92
2023/09/09 11:01:38;;;;;;;420.25;388.70;;;26.50;99.90;;;;;;4933285;29;20047;-91
2023/09/09 11:04:23;;;;;;;696.88;635.90;;;26.50;99.90;;;;;;5008721;28;20136;-91
2023/09/09 11:07:18;;;;;;;645.88;591.20;;;26.60;99.90;;;;;;5004067;28;20051;-91
2023/09/09 11:09:52;;;;;;;726.42;661.92;;;26.70;99.90;;;;;;5003850;28;20129;-91
2023/09/09 11:12:24;;;;;;;716.08;651.00;;;26.70;99.90;;;;;;4998242;28;20046;-91
2023/09/09 11:15:22;;;;;;;720.22;654.92;;;26.70;99.90;;;;;;5014435;28;20037;-91
2023/09/09 11:17:51;;;;;;;717.08;651.58;;;26.80;99.90;;;;;;4998259;28;20049;-92
2023/09/09 11:20:26;;;;;;;713.47;648.10;;;26.80;99.90;;;;;;4998894;28;20088;-92
2023/09/09 11:22:55;;;;;;;744.60;676.28;;;26.70;99.90;;;;;;4999178;28;20049;-91
2023/09/09 11:25:22;;;;;;;722.80;656.70;;;26.80;99.90;;;;;;5014916;28;20049;-91
2023/09/09 11:27:49;;;;;;;693.85;629.80;;;26.80;99.90;;;;;;5037739;23;20502;-90
2023/09/09 11:30:18;;;;;;;650.63;592.90;;;26.80;99.90;;;;;;5035249;28;20056;-91
2023/09/09 11:32:49;;;;;;;634.10;580.28;;;26.80;99.90;;;;;;5034215;28;20083;-92
2023/09/09 11:35:23;;;;;;;448.63;410.42;;;26.80;99.90;;;;;;5018554;28;20037;-90
2023/09/09 11:38:06;;;;;;;447.33;409.50;;;26.80;99.90;;;;;;5046633;28;20075;-91
2023/09/09 11:40:35;;;;;;;335.52;306.90;;;26.80;99.90;;;;;;5017478;28;20080;-91
2023/09/09 11:43:10;;;;;;;534.10;489.38;;;26.80;99.90;;;;;;5022325;28;20044;-91
2023/09/09 11:45:36;;;;;;;375.30;342.25;;;26.80;99.90;;;;;;5035751;28;20076;-91
2023/09/09 11:48:03;;;;;;;362.23;331.75;;;26.80;99.90;;;;;;5062424;28;20052;-91
2023/09/09 11:50:45;;;;;;;345.88;317.00;;;26.80;99.90;;;;;;5035644;28;20118;-91
2023/09/09 11:53:22;;;;;;;378.92;347.55;;;26.80;99.90;;;;;;5033728;28;20102;-90
2023/09/09 11:55:54;;;;;;;447.50;410.73;;;26.80;99.90;;;;;;5045300;28;20136;-90
2023/09/09 11:58:20;;;;;;;449.65;410.33;;;26.80;99.90;;;;;;5016697;28;20049;-92
2023/09/09 12:03:29;;;;;;;376.42;343.77;;;26.80;99.90;;;;;;5092783;23;20136;-91
2023/09/09 12:06:00;;;;;;;389.73;357.55;;;26.80;99.90;;;;;;5069850;28;20044;-92
2023/09/09 12:08:26;;;;;;;461.08;421.58;;;26.90;99.90;;;;;;5036377;28;20045;-90
2023/09/09 12:11:07;;;;;;;464.55;425.80;;;26.80;99.90;;;;;;5025586;28;20086;-91
2023/09/09 12:13:46;;;;;;;425.95;390.85;;;26.90;99.90;;;;;;5048276;28;20040;-91
2023/09/09 12:16:35;;;;;;;530.58;485.08;;;26.90;99.90;;;;;;5016712;28;20033;-91